sensor_id;sensor_type;location;lat;lon;timestamp;temperature;humidity
46117;DHT22;32591;48.102;11.772;2023-04-06T00:00:36;1.00;99.90
46117;DHT22;32591;48.102;11.772;2023-04-06T00:03:03;1.00;99.90
46117;DHT22;32591;48.102;11.772;2023-04-06T00:05:30;0.90;99.90
46117;DHT22;32591;48.102;11.772;2023-04-06T00:07:57;0.90;99.90
46117;DHT22;32591;48.102;11.772;2023-04-06T00:10:26;0.90;99.90
46117;DHT22;32591;48.102;11.772;2023-04-06T00:12:54;0.90;99.90
46117;DHT22;32591;48.102;11.772;2023-04-06T00:15:22;0.80;99.90
46117;DHT22;32591;48.102;11.772;2023-04-06T00:17:49;0.90;99.90
46117;DHT22;32591;48.102;11.772;2023-04-06T00:20:16;0.80;99.90
46117;DHT22;32591;48.102;11.772;2023-04-06T00:22:43;0.80;99.90
46117;DHT22;32591;48.102;11.772;2023-04-06T00:25:11;0.70;99.90
46117;DHT22;32591;48.102;11.772;2023-04-06T00:27:39;0.70;99.90
46117;DHT22;32591;48.102;11.772;2023-04-06T00:30:08;0.70;99.90
46117;DHT22;32591;48.102;11.772;2023-04-06T00:32:36;0.70;99.90
46117;DHT22;32591;48.102;11.772;2023-04-06T00:35:04;0.70;99.90
46117;DHT22;32591;48.102;11.772;2023-04-06T00:37:32;0.70;99.90
46117;DHT22;32591;48.102;11.772;2023-04-06T00:40:00;0.70;99.90
46117;DHT22;32591;48.102;11.772;2023-04-06T00:42:28;0.60;99.90
46117;DHT22;32591;48.102;11.772;2023-04-06T00:44:59;0.60;99.90
46117;DHT22;32591;48.102;11.772;2023-04-06T00:47:26;0.60;99.90
46117;DHT22;32591;48.102;11.772;2023-04-06T00:49:54;0.60;99.90
46117;DHT22;32591;48.102;11.772;2023-04-06T00:52:21;0.60;99.90
46117;DHT22;32591;48.102;11.772;2023-04-06T00:54:49;0.60;99.90
46117;DHT22;32591;48.102;11.772;2023-04-06T00:57:17;0.60;99.90
46117;DHT22;32591;48.102;11.772;2023-04-06T00:59:45;0.60;99.90
46117;DHT22;32591;48.102;11.772;2023-04-06T01:02:13;0.50;99.90
46117;DHT22;32591;48.102;11.772;2023-04-06T01:04:41;0.50;99.90
46117;DHT22;32591;48.102;11.772;2023-04-06T01:07:08;0.50;99.90
46117;DHT22;32591;48.102;11.772;2023-04-06T01:09:35;0.50;99.90
46117;DHT22;32591;48.102;11.772;2023-04-06T01:12:02;0.40;99.90
46117;DHT22;32591;48.102;11.772;2023-04-06T01:14:30;0.40;99.90
46117;DHT22;32591;48.102;11.772;2023-04-06T01:16:58;0.40;99.90
46117;DHT22;32591;48.102;11.772;2023-04-06T01:19:28;0.40;99.90
46117;DHT22;32591;48.102;11.772;2023-04-06T01:21:55;0.40;99.90
46117;DHT22;32591;48.102;11.772;2023-04-06T01:24:23;0.40;99.90
46117;DHT22;32591;48.102;11.772;2023-04-06T01:26:50;0.40;99.90
46117;DHT22;32591;48.102;11.772;2023-04-06T01:29:18;0.30;99.90
46117;DHT22;32591;48.102;11.772;2023-04-06T01:31:45;0.30;99.90
46117;DHT22;32591;48.102;11.772;2023-04-06T01:34:12;0.30;99.90
46117;DHT22;32591;48.102;11.772;2023-04-06T01:36:39;0.30;99.90
46117;DHT22;32591;48.102;11.772;2023-04-06T01:39:06;0.30;99.90
46117;DHT22;32591;48.102;11.772;2023-04-06T01:41:35;0.30;99.90
46117;DHT22;32591;48.102;11.772;2023-04-06T01:44:02;0.30;99.90
46117;DHT22;32591;48.102;11.772;2023-04-06T01:46:30;0.20;99.90
46117;DHT22;32591;48.102;11.772;2023-04-06T01:48:57;0.20;99.90
46117;DHT22;32591;48.102;11.772;2023-04-06T01:51:24;0.20;99.90
46117;DHT22;32591;48.102;11.772;2023-04-06T01:53:51;0.20;99.90
46117;DHT22;32591;48.102;11.772;2023-04-06T01:56:18;0.10;99.90
46117;DHT22;32591;48.102;11.772;2023-04-06T01:58:47;0.20;99.90
46117;DHT22;32591;48.102;11.772;2023-04-06T02:01:14;0.20;99.90
46117;DHT22;32591;48.102;11.772;2023-04-06T02:03:41;0.10;99.90
46117;DHT22;32591;48.102;11.772;2023-04-06T02:06:08;0.10;99.90
46117;DHT22;32591;48.102;11.772;2023-04-06T02:08:35;0.10;99.90
46117;DHT22;32591;48.102;11.772;2023-04-06T02:11:02;0.10;99.90
46117;DHT22;32591;48.102;11.772;2023-04-06T02:13:29;0.10;99.90
46117;DHT22;32591;48.102;11.772;2023-04-06T02:15:58;0.10;99.90
46117;DHT22;32591;48.102;11.772;2023-04-06T02:18:25;0.10;99.90
46117;DHT22;32591;48.102;11.772;2023-04-06T02:20:53;0.10;99.90
46117;DHT22;32591;48.102;11.772;2023-04-06T02:23:21;0.00;99.90
46117;DHT22;32591;48.102;11.772;2023-04-06T02:25:48;0.00;99.90
46117;DHT22;32591;48.102;11.772;2023-04-06T02:28:15;0.00;99.90
46117;DHT22;32591;48.102;11.772;2023-04-06T02:30:42;0.00;99.90
46117;DHT22;32591;48.102;11.772;2023-04-06T02:33:11;0.00;99.90
46117;DHT22;32591;48.102;11.772;2023-04-06T02:35:38;0.00;99.90
46117;DHT22;32591;48.102;11.772;2023-04-06T02:38:05;0.00;99.90
46117;DHT22;32591;48.102;11.772;2023-04-06T02:40:32;0.00;99.90
46117;DHT22;32591;48.102;11.772;2023-04-06T02:42:59;-0.10;99.90
46117;DHT22;32591;48.102;11.772;2023-04-06T02:45:26;-0.10;99.90
46117;DHT22;32591;48.102;11.772;2023-04-06T02:47:53;-0.10;99.90
46117;DHT22;32591;48.102;11.772;2023-04-06T02:50:22;-0.10;99.90
46117;DHT22;32591;48.102;11.772;2023-04-06T02:52:49;-0.10;99.90
46117;DHT22;32591;48.102;11.772;2023-04-06T02:55:16;-0.10;99.90
46117;DHT22;32591;48.102;11.772;2023-04-06T02:57:43;-0.10;99.90
46117;DHT22;32591;48.102;11.772;2023-04-06T03:00:11;-0.10;99.90
46117;DHT22;32591;48.102;11.772;2023-04-06T03:02:39;-0.10;99.90
46117;DHT22;32591;48.102;11.772;2023-04-06T03:05:06;-0.20;99.90
46117;DHT22;32591;48.102;11.772;2023-04-06T03:07:35;-0.20;99.90
46117;DHT22;32591;48.102;11.772;2023-04-06T03:10:02;-0.20;99.90
46117;DHT22;32591;48.102;11.772;2023-04-06T03:12:29;-0.20;99.90
46117;DHT22;32591;48.102;11.772;2023-04-06T03:14:56;-0.20;99.90
46117;DHT22;32591;48.102;11.772;2023-04-06T03:17:23;-0.20;99.90
46117;DHT22;32591;48.102;11.772;2023-04-06T03:19:51;-0.20;99.90
46117;DHT22;32591;48.102;11.772;2023-04-06T03:22:19;-0.20;99.90
46117;DHT22;32591;48.102;11.772;2023-04-06T03:24:47;-0.20;99.90
46117;DHT22;32591;48.102;11.772;2023-04-06T03:27:15;-0.20;99.90
46117;DHT22;32591;48.102;11.772;2023-04-06T03:29:42;-0.20;99.90
46117;DHT22;32591;48.102;11.772;2023-04-06T03:32:09;-0.30;99.90
46117;DHT22;32591;48.102;11.772;2023-04-06T03:34:36;-0.30;99.90
46117;DHT22;32591;48.102;11.772;2023-04-06T03:37:03;-0.30;99.90
46117;DHT22;32591;48.102;11.772;2023-04-06T03:39:30;-0.30;99.90
46117;DHT22;32591;48.102;11.772;2023-04-06T03:41:58;-0.30;99.90
46117;DHT22;32591;48.102;11.772;2023-04-06T03:44:26;-0.30;99.90
46117;DHT22;32591;48.102;11.772;2023-04-06T03:46:53;-0.30;99.90
46117;DHT22;32591;48.102;11.772;2023-04-06T03:49:20;-0.30;99.90
46117;DHT22;32591;48.102;11.772;2023-04-06T03:51:47;-0.40;99.90
46117;DHT22;32591;48.102;11.772;2023-04-06T03:54:13;-0.30;99.90
46117;DHT22;32591;48.102;11.772;2023-04-06T03:56:40;-0.40;99.90
46117;DHT22;32591;48.102;11.772;2023-04-06T03:59:09;-0.40;99.90
46117;DHT22;32591;48.102;11.772;2023-04-06T04:01:36;-0.40;99.90
46117;DHT22;32591;48.102;11.772;2023-04-06T04:04:05;-0.40;99.90
46117;DHT22;32591;48.102;11.772;2023-04-06T04:06:32;-0.40;99.90
46117;DHT22;32591;48.102;11.772;2023-04-06T04:08:59;-0.40;99.90
46117;DHT22;32591;48.102;11.772;2023-04-06T04:11:27;-0.40;99.90
46117;DHT22;32591;48.102;11.772;2023-04-06T04:13:54;-0.50;99.90
46117;DHT22;32591;48.102;11.772;2023-04-06T04:16:22;-0.50;99.90
46117;DHT22;32591;48.102;11.772;2023-04-06T04:18:49;-0.50;99.90
46117;DHT22;32591;48.102;11.772;2023-04-06T04:21:16;-0.50;99.90
46117;DHT22;32591;48.102;11.772;2023-04-06T04:23:43;-0.50;99.90
46117;DHT22;32591;48.102;11.772;2023-04-06T04:26:10;-0.50;99.90
46117;DHT22;32591;48.102;11.772;2023-04-06T04:28:38;-0.50;99.90
46117;DHT22;32591;48.102;11.772;2023-04-06T04:31:05;-0.50;99.90
46117;DHT22;32591;48.102;11.772;2023-04-06T04:33:33;-0.50;99.90
46117;DHT22;32591;48.102;11.772;2023-04-06T04:36:00;-0.50;99.90
46117;DHT22;32591;48.102;11.772;2023-04-06T04:38:27;-0.50;99.90
46117;DHT22;32591;48.102;11.772;2023-04-06T04:40:54;-0.50;99.90
46117;DHT22;32591;48.102;11.772;2023-04-06T04:43:22;-0.50;99.90
46117;DHT22;32591;48.102;11.772;2023-04-06T04:45:49;-0.40;99.90
46117;DHT22;32591;48.102;11.772;2023-04-06T04:48:16;-0.40;99.90
46117;DHT22;32591;48.102;11.772;2023-04-06T04:50:44;-0.40;99.90
46117;DHT22;32591;48.102;11.772;2023-04-06T04:53:11;-0.40;99.90
46117;DHT22;32591;48.102;11.772;2023-04-06T04:55:39;-0.40;99.90
46117;DHT22;32591;48.102;11.772;2023-04-06T04:58:06;-0.40;99.90
46117;DHT22;32591;48.102;11.772;2023-04-06T05:00:34;-0.40;99.90
46117;DHT22;32591;48.102;11.772;2023-04-06T05:03:01;-0.40;99.90
46117;DHT22;32591;48.102;11.772;2023-04-06T05:05:29;-0.30;99.90
46117;DHT22;32591;48.102;11.772;2023-04-06T05:07:58;-0.30;99.90
46117;DHT22;32591;48.102;11.772;2023-04-06T05:10:25;-0.30;99.90
46117;DHT22;32591;48.102;11.772;2023-04-06T05:12:53;-0.30;99.90
46117;DHT22;32591;48.102;11.772;2023-04-06T05:15:20;0.00;99.90
46117;DHT22;32591;48.102;11.772;2023-04-06T05:17:47;0.00;99.90
46117;DHT22;32591;48.102;11.772;2023-04-06T05:20:14;-0.10;99.90
46117;DHT22;32591;48.102;11.772;2023-04-06T05:22:41;-0.10;99.90
46117;DHT22;32591;48.102;11.772;2023-04-06T05:25:10;-0.10;99.90
46117;DHT22;32591;48.102;11.772;2023-04-06T05:27:37;-0.10;99.90
46117;DHT22;32591;48.102;11.772;2023-04-06T05:30:06;0.00;99.90
46117;DHT22;32591;48.102;11.772;2023-04-06T05:32:34;0.10;99.90
46117;DHT22;32591;48.102;11.772;2023-04-06T05:35:02;0.10;99.90
46117;DHT22;32591;48.102;11.772;2023-04-06T05:37:29;0.20;99.90
46117;DHT22;32591;48.102;11.772;2023-04-06T05:39:56;0.30;99.90
46117;DHT22;32591;48.102;11.772;2023-04-06T05:42:25;0.40;99.90
46117;DHT22;32591;48.102;11.772;2023-04-06T05:44:52;0.50;99.90
46117;DHT22;32591;48.102;11.772;2023-04-06T05:47:19;0.60;99.90
46117;DHT22;32591;48.102;11.772;2023-04-06T05:49:46;0.60;99.90
46117;DHT22;32591;48.102;11.772;2023-04-06T05:52:14;0.60;99.90
46117;DHT22;32591;48.102;11.772;2023-04-06T05:54:41;0.70;99.90
46117;DHT22;32591;48.102;11.772;2023-04-06T05:57:08;0.70;99.90
46117;DHT22;32591;48.102;11.772;2023-04-06T05:59:36;0.80;99.90
46117;DHT22;32591;48.102;11.772;2023-04-06T06:02:03;0.80;99.90
46117;DHT22;32591;48.102;11.772;2023-04-06T06:04:30;0.90;99.90
46117;DHT22;32591;48.102;11.772;2023-04-06T06:06:58;1.00;99.90
46117;DHT22;32591;48.102;11.772;2023-04-06T06:09:26;1.10;99.90
46117;DHT22;32591;48.102;11.772;2023-04-06T06:11:53;1.20;99.90
46117;DHT22;32591;48.102;11.772;2023-04-06T06:14:20;1.30;99.90
46117;DHT22;32591;48.102;11.772;2023-04-06T06:16:49;1.40;99.90
46117;DHT22;32591;48.102;11.772;2023-04-06T06:19:17;1.50;99.90
46117;DHT22;32591;48.102;11.772;2023-04-06T06:21:44;1.50;99.90
46117;DHT22;32591;48.102;11.772;2023-04-06T06:24:11;1.60;99.90
46117;DHT22;32591;48.102;11.772;2023-04-06T06:26:38;1.70;99.90
46117;DHT22;32591;48.102;11.772;2023-04-06T06:29:06;1.70;99.90
46117;DHT22;32591;48.102;11.772;2023-04-06T06:31:33;1.80;99.90
46117;DHT22;32591;48.102;11.772;2023-04-06T06:34:02;1.90;99.90
46117;DHT22;32591;48.102;11.772;2023-04-06T06:36:29;1.90;99.90
46117;DHT22;32591;48.102;11.772;2023-04-06T06:38:57;2.10;99.90
46117;DHT22;32591;48.102;11.772;2023-04-06T06:41:26;2.10;99.90
46117;DHT22;32591;48.102;11.772;2023-04-06T06:43:53;2.10;99.90
46117;DHT22;32591;48.102;11.772;2023-04-06T06:46:20;2.20;99.90
46117;DHT22;32591;48.102;11.772;2023-04-06T06:48:47;2.40;99.90
46117;DHT22;32591;48.102;11.772;2023-04-06T06:51:16;2.50;99.90
46117;DHT22;32591;48.102;11.772;2023-04-06T06:53:43;2.60;99.90
46117;DHT22;32591;48.102;11.772;2023-04-06T06:56:10;2.90;99.90
46117;DHT22;32591;48.102;11.772;2023-04-06T06:58:38;3.00;99.90
46117;DHT22;32591;48.102;11.772;2023-04-06T07:01:05;3.00;99.90
46117;DHT22;32591;48.102;11.772;2023-04-06T07:03:32;3.10;99.90
46117;DHT22;32591;48.102;11.772;2023-04-06T07:05:59;3.20;99.90
46117;DHT22;32591;48.102;11.772;2023-04-06T07:08:28;3.30;99.90
46117;DHT22;32591;48.102;11.772;2023-04-06T07:10:55;3.40;99.90
46117;DHT22;32591;48.102;11.772;2023-04-06T07:13:22;3.50;99.90
46117;DHT22;32591;48.102;11.772;2023-04-06T07:15:50;3.70;99.90
46117;DHT22;32591;48.102;11.772;2023-04-06T07:18:17;3.80;99.90
46117;DHT22;32591;48.102;11.772;2023-04-06T07:20:46;3.90;99.90
46117;DHT22;32591;48.102;11.772;2023-04-06T07:23:13;3.90;99.90
46117;DHT22;32591;48.102;11.772;2023-04-06T07:25:41;4.00;99.90
46117;DHT22;32591;48.102;11.772;2023-04-06T07:28:09;4.40;99.90
46117;DHT22;32591;48.102;11.772;2023-04-06T07:30:36;4.70;99.90
46117;DHT22;32591;48.102;11.772;2023-04-06T07:33:04;4.80;99.90
46117;DHT22;32591;48.102;11.772;2023-04-06T07:35:31;4.90;98.20
46117;DHT22;32591;48.102;11.772;2023-04-06T07:37:58;4.90;96.60
46117;DHT22;32591;48.102;11.772;2023-04-06T07:40:25;5.00;95.40
46117;DHT22;32591;48.102;11.772;2023-04-06T07:42:54;4.90;94.70
46117;DHT22;32591;48.102;11.772;2023-04-06T07:45:21;5.00;94.20
46117;DHT22;32591;48.102;11.772;2023-04-06T07:47:47;5.20;93.90
46117;DHT22;32591;48.102;11.772;2023-04-06T07:50:15;5.30;92.50
46117;DHT22;32591;48.102;11.772;2023-04-06T07:52:42;5.50;91.60
46117;DHT22;32591;48.102;11.772;2023-04-06T07:55:10;5.60;91.10
46117;DHT22;32591;48.102;11.772;2023-04-06T07:57:37;5.70;91.30
46117;DHT22;32591;48.102;11.772;2023-04-06T08:00:06;5.80;92.50
46117;DHT22;32591;48.102;11.772;2023-04-06T08:02:35;5.90;90.90
46117;DHT22;32591;48.102;11.772;2023-04-06T08:05:03;6.00;91.60
46117;DHT22;32591;48.102;11.772;2023-04-06T08:07:30;6.10;89.00
46117;DHT22;32591;48.102;11.772;2023-04-06T08:09:57;6.20;86.70
46117;DHT22;32591;48.102;11.772;2023-04-06T08:12:24;6.20;89.20
46117;DHT22;32591;48.102;11.772;2023-04-06T08:14:51;6.30;87.40
46117;DHT22;32591;48.102;11.772;2023-04-06T08:17:19;6.40;87.70
46117;DHT22;32591;48.102;11.772;2023-04-06T08:19:46;6.50;89.20
46117;DHT22;32591;48.102;11.772;2023-04-06T08:22:13;6.60;90.00
46117;DHT22;32591;48.102;11.772;2023-04-06T08:24:40;6.80;81.10
46117;DHT22;32591;48.102;11.772;2023-04-06T08:27:07;6.70;80.90
46117;DHT22;32591;48.102;11.772;2023-04-06T08:29:34;6.90;83.60
46117;DHT22;32591;48.102;11.772;2023-04-06T08:32:02;7.00;83.30
46117;DHT22;32591;48.102;11.772;2023-04-06T08:34:32;7.20;79.80
46117;DHT22;32591;48.102;11.772;2023-04-06T08:37:00;7.40;77.20
46117;DHT22;32591;48.102;11.772;2023-04-06T08:39:27;7.60;76.70
46117;DHT22;32591;48.102;11.772;2023-04-06T08:41:56;7.70;76.70
46117;DHT22;32591;48.102;11.772;2023-04-06T08:44:25;7.90;74.40
46117;DHT22;32591;48.102;11.772;2023-04-06T08:46:52;8.00;71.90
46117;DHT22;32591;48.102;11.772;2023-04-06T08:49:20;8.20;71.90
46117;DHT22;32591;48.102;11.772;2023-04-06T08:51:49;8.30;72.80
46117;DHT22;32591;48.102;11.772;2023-04-06T08:54:16;8.20;71.90
46117;DHT22;32591;48.102;11.772;2023-04-06T08:56:43;8.20;71.80
46117;DHT22;32591;48.102;11.772;2023-04-06T08:59:11;8.30;72.00
46117;DHT22;32591;48.102;11.772;2023-04-06T09:01:39;8.40;70.80
46117;DHT22;32591;48.102;11.772;2023-04-06T09:04:08;8.40;67.90
46117;DHT22;32591;48.102;11.772;2023-04-06T09:06:36;8.40;67.70
46117;DHT22;32591;48.102;11.772;2023-04-06T09:09:05;8.20;68.50
46117;DHT22;32591;48.102;11.772;2023-04-06T09:11:43;8.00;68.00
46117;DHT22;32591;48.102;11.772;2023-04-06T09:14:11;8.00;67.80
46117;DHT22;32591;48.102;11.772;2023-04-06T09:16:40;8.20;68.40
46117;DHT22;32591;48.102;11.772;2023-04-06T09:19:07;8.20;67.30
46117;DHT22;32591;48.102;11.772;2023-04-06T09:21:36;8.30;67.00
46117;DHT22;32591;48.102;11.772;2023-04-06T09:24:07;8.60;67.60
46117;DHT22;32591;48.102;11.772;2023-04-06T09:26:45;8.70;65.60
46117;DHT22;32591;48.102;11.772;2023-04-06T09:29:22;8.80;64.80
46117;DHT22;32591;48.102;11.772;2023-04-06T09:31:51;9.20;64.10
46117;DHT22;32591;48.102;11.772;2023-04-06T09:34:22;8.90;62.50
46117;DHT22;32591;48.102;11.772;2023-04-06T09:36:49;9.00;67.50
46117;DHT22;32591;48.102;11.772;2023-04-06T09:39:20;9.20;63.90
46117;DHT22;32591;48.102;11.772;2023-04-06T09:41:50;9.20;66.70
46117;DHT22;32591;48.102;11.772;2023-04-06T09:44:18;9.30;64.40
46117;DHT22;32591;48.102;11.772;2023-04-06T09:46:47;9.50;62.60
46117;DHT22;32591;48.102;11.772;2023-04-06T09:49:14;9.60;63.10
46117;DHT22;32591;48.102;11.772;2023-04-06T09:51:45;9.70;65.00
46117;DHT22;32591;48.102;11.772;2023-04-06T09:54:18;9.90;63.80
46117;DHT22;32591;48.102;11.772;2023-04-06T09:56:51;9.90;62.00
46117;DHT22;32591;48.102;11.772;2023-04-06T09:59:28;10.00;60.80
46117;DHT22;32591;48.102;11.772;2023-04-06T10:01:59;9.90;59.00
46117;DHT22;32591;48.102;11.772;2023-04-06T10:04:33;10.00;58.80
46117;DHT22;32591;48.102;11.772;2023-04-06T10:07:04;10.10;58.90
46117;DHT22;32591;48.102;11.772;2023-04-06T10:09:35;10.20;57.30
46117;DHT22;32591;48.102;11.772;2023-04-06T10:12:04;10.40;60.20
46117;DHT22;32591;48.102;11.772;2023-04-06T10:14:33;10.50;58.60
46117;DHT22;32591;48.102;11.772;2023-04-06T10:17:03;10.40;63.40
46117;DHT22;32591;48.102;11.772;2023-04-06T10:19:37;10.50;62.00
46117;DHT22;32591;48.102;11.772;2023-04-06T10:22:10;10.30;57.50
46117;DHT22;32591;48.102;11.772;2023-04-06T10:24:40;10.00;57.00
46117;DHT22;32591;48.102;11.772;2023-04-06T10:27:07;9.80;57.10
46117;DHT22;32591;48.102;11.772;2023-04-06T10:29:44;9.50;57.80
46117;DHT22;32591;48.102;11.772;2023-04-06T10:32:12;9.20;59.20
46117;DHT22;32591;48.102;11.772;2023-04-06T10:34:39;9.30;61.50
46117;DHT22;32591;48.102;11.772;2023-04-06T10:37:13;9.70;60.80
46117;DHT22;32591;48.102;11.772;2023-04-06T10:39:52;10.00;61.00
46117;DHT22;32591;48.102;11.772;2023-04-06T10:42:24;10.30;60.20
46117;DHT22;32591;48.102;11.772;2023-04-06T10:44:52;10.70;60.10
46117;DHT22;32591;48.102;11.772;2023-04-06T10:47:18;10.80;54.50
46117;DHT22;32591;48.102;11.772;2023-04-06T10:49:45;10.90;58.30
46117;DHT22;32591;48.102;11.772;2023-04-06T10:52:12;11.00;54.40
46117;DHT22;32591;48.102;11.772;2023-04-06T10:54:41;11.10;55.70
46117;DHT22;32591;48.102;11.772;2023-04-06T10:57:12;10.70;54.00
46117;DHT22;32591;48.102;11.772;2023-04-06T10:59:42;10.40;54.20
46117;DHT22;32591;48.102;11.772;2023-04-06T11:02:19;10.20;54.10
46117;DHT22;32591;48.102;11.772;2023-04-06T11:04:54;10.10;56.00
46117;DHT22;32591;48.102;11.772;2023-04-06T11:07:23;9.80;55.10
46117;DHT22;32591;48.102;11.772;2023-04-06T11:09:51;9.70;54.30
46117;DHT22;32591;48.102;11.772;2023-04-06T11:12:23;9.70;55.70
46117;DHT22;32591;48.102;11.772;2023-04-06T11:14:55;9.60;54.60
46117;DHT22;32591;48.102;11.772;2023-04-06T11:17:28;9.40;54.70
46117;DHT22;32591;48.102;11.772;2023-04-06T11:19:55;9.40;55.10
46117;DHT22;32591;48.102;11.772;2023-04-06T11:22:23;9.30;55.10
46117;DHT22;32591;48.102;11.772;2023-04-06T11:24:50;9.30;55.70
46117;DHT22;32591;48.102;11.772;2023-04-06T11:27:18;9.70;56.50
46117;DHT22;32591;48.102;11.772;2023-04-06T11:29:47;10.00;54.30
46117;DHT22;32591;48.102;11.772;2023-04-06T11:32:24;10.30;53.60
46117;DHT22;32591;48.102;11.772;2023-04-06T11:34:51;10.60;52.80
46117;DHT22;32591;48.102;11.772;2023-04-06T11:37:18;10.50;52.10
46117;DHT22;32591;48.102;11.772;2023-04-06T11:39:48;10.50;51.90
46117;DHT22;32591;48.102;11.772;2023-04-06T11:42:22;10.50;52.00
46117;DHT22;32591;48.102;11.772;2023-04-06T11:44:53;10.50;51.50
46117;DHT22;32591;48.102;11.772;2023-04-06T11:47:27;10.20;51.40
46117;DHT22;32591;48.102;11.772;2023-04-06T11:49:55;10.20;53.30
46117;DHT22;32591;48.102;11.772;2023-04-06T11:52:27;10.00;54.50
46117;DHT22;32591;48.102;11.772;2023-04-06T11:54:55;10.10;51.30
46117;DHT22;32591;48.102;11.772;2023-04-06T11:57:23;10.10;51.50
46117;DHT22;32591;48.102;11.772;2023-04-06T11:59:52;10.00;51.30
46117;DHT22;32591;48.102;11.772;2023-04-06T12:02:19;9.90;51.10
46117;DHT22;32591;48.102;11.772;2023-04-06T12:04:46;9.90;51.50
46117;DHT22;32591;48.102;11.772;2023-04-06T12:07:13;9.70;52.20
46117;DHT22;32591;48.102;11.772;2023-04-06T12:09:42;9.80;52.80
46117;DHT22;32591;48.102;11.772;2023-04-06T12:12:09;9.90;53.90
46117;DHT22;32591;48.102;11.772;2023-04-06T12:14:36;10.10;54.10
46117;DHT22;32591;48.102;11.772;2023-04-06T12:17:05;10.40;54.10
46117;DHT22;32591;48.102;11.772;2023-04-06T12:19:32;10.40;51.40
46117;DHT22;32591;48.102;11.772;2023-04-06T12:21:59;10.20;50.30
46117;DHT22;32591;48.102;11.772;2023-04-06T12:24:27;10.20;52.10
46117;DHT22;32591;48.102;11.772;2023-04-06T12:26:54;10.20;51.10
46117;DHT22;32591;48.102;11.772;2023-04-06T12:29:23;10.30;52.70
46117;DHT22;32591;48.102;11.772;2023-04-06T12:31:51;10.40;52.30
46117;DHT22;32591;48.102;11.772;2023-04-06T12:34:19;10.40;51.90
46117;DHT22;32591;48.102;11.772;2023-04-06T12:36:46;10.30;54.00
46117;DHT22;32591;48.102;11.772;2023-04-06T12:39:15;10.20;52.20
46117;DHT22;32591;48.102;11.772;2023-04-06T12:41:43;10.20;52.30
46117;DHT22;32591;48.102;11.772;2023-04-06T12:44:10;10.10;52.40
46117;DHT22;32591;48.102;11.772;2023-04-06T12:46:37;10.20;52.40
46117;DHT22;32591;48.102;11.772;2023-04-06T12:49:04;10.20;52.00
46117;DHT22;32591;48.102;11.772;2023-04-06T12:51:33;10.20;52.40
46117;DHT22;32591;48.102;11.772;2023-04-06T12:54:00;10.30;52.20
46117;DHT22;32591;48.102;11.772;2023-04-06T12:56:27;10.20;52.20
46117;DHT22;32591;48.102;11.772;2023-04-06T12:58:55;10.20;51.60
46117;DHT22;32591;48.102;11.772;2023-04-06T13:01:22;10.20;51.90
46117;DHT22;32591;48.102;11.772;2023-04-06T13:03:49;10.20;51.40
46117;DHT22;32591;48.102;11.772;2023-04-06T13:06:16;10.20;51.80
46117;DHT22;32591;48.102;11.772;2023-04-06T13:08:45;10.30;53.10
46117;DHT22;32591;48.102;11.772;2023-04-06T13:11:12;10.40;52.00
46117;DHT22;32591;48.102;11.772;2023-04-06T13:13:40;10.40;51.60
46117;DHT22;32591;48.102;11.772;2023-04-06T13:16:08;10.40;51.80
46117;DHT22;32591;48.102;11.772;2023-04-06T13:18:35;10.30;54.10
46117;DHT22;32591;48.102;11.772;2023-04-06T13:21:04;10.40;53.90
46117;DHT22;32591;48.102;11.772;2023-04-06T13:23:31;10.30;54.60
46117;DHT22;32591;48.102;11.772;2023-04-06T13:26:01;10.30;53.20
46117;DHT22;32591;48.102;11.772;2023-04-06T13:28:30;10.40;53.60
46117;DHT22;32591;48.102;11.772;2023-04-06T13:30:59;10.40;52.00
46117;DHT22;32591;48.102;11.772;2023-04-06T13:33:26;10.70;53.50
46117;DHT22;32591;48.102;11.772;2023-04-06T13:35:54;11.20;53.70
46117;DHT22;32591;48.102;11.772;2023-04-06T13:38:21;11.20;52.90
46117;DHT22;32591;48.102;11.772;2023-04-06T13:40:49;11.30;51.50
46117;DHT22;32591;48.102;11.772;2023-04-06T13:43:18;11.20;50.70
46117;DHT22;32591;48.102;11.772;2023-04-06T13:45:49;11.10;51.00
46117;DHT22;32591;48.102;11.772;2023-04-06T13:48:17;11.10;52.30
46117;DHT22;32591;48.102;11.772;2023-04-06T13:50:44;11.10;51.30
46117;DHT22;32591;48.102;11.772;2023-04-06T13:53:12;11.00;51.60
46117;DHT22;32591;48.102;11.772;2023-04-06T13:55:39;10.90;51.20
46117;DHT22;32591;48.102;11.772;2023-04-06T13:58:06;10.80;50.50
46117;DHT22;32591;48.102;11.772;2023-04-06T14:00:35;10.60;51.20
46117;DHT22;32591;48.102;11.772;2023-04-06T14:03:02;10.60;50.80
46117;DHT22;32591;48.102;11.772;2023-04-06T14:05:31;10.50;55.80
46117;DHT22;32591;48.102;11.772;2023-04-06T14:07:58;10.50;57.20
46117;DHT22;32591;48.102;11.772;2023-04-06T14:10:25;10.60;55.70
46117;DHT22;32591;48.102;11.772;2023-04-06T14:12:53;10.80;53.50
46117;DHT22;32591;48.102;11.772;2023-04-06T14:15:20;11.00;52.50
46117;DHT22;32591;48.102;11.772;2023-04-06T14:17:49;11.40;52.20
46117;DHT22;32591;48.102;11.772;2023-04-06T14:20:17;11.90;51.00
46117;DHT22;32591;48.102;11.772;2023-04-06T14:22:44;12.10;52.60
46117;DHT22;32591;48.102;11.772;2023-04-06T14:25:11;12.20;49.50
46117;DHT22;32591;48.102;11.772;2023-04-06T14:27:39;12.10;49.00
46117;DHT22;32591;48.102;11.772;2023-04-06T14:30:07;12.10;48.90
46117;DHT22;32591;48.102;11.772;2023-04-06T14:32:35;12.00;48.60
46117;DHT22;32591;48.102;11.772;2023-04-06T14:35:05;11.70;48.40
46117;DHT22;32591;48.102;11.772;2023-04-06T14:37:32;11.40;49.60
46117;DHT22;32591;48.102;11.772;2023-04-06T14:39:59;11.40;50.60
46117;DHT22;32591;48.102;11.772;2023-04-06T14:42:26;11.70;51.50
46117;DHT22;32591;48.102;11.772;2023-04-06T14:44:53;12.10;51.20
46117;DHT22;32591;48.102;11.772;2023-04-06T14:47:20;12.50;49.50
46117;DHT22;32591;48.102;11.772;2023-04-06T14:49:48;12.70;48.40
46117;DHT22;32591;48.102;11.772;2023-04-06T14:52:18;12.40;47.80
46117;DHT22;32591;48.102;11.772;2023-04-06T14:54:46;12.10;48.70
46117;DHT22;32591;48.102;11.772;2023-04-06T14:57:13;12.10;49.80
46117;DHT22;32591;48.102;11.772;2023-04-06T14:59:40;12.00;48.40
46117;DHT22;32591;48.102;11.772;2023-04-06T15:02:07;11.90;48.90
46117;DHT22;32591;48.102;11.772;2023-04-06T15:04:35;12.10;48.50
46117;DHT22;32591;48.102;11.772;2023-04-06T15:07:02;12.10;48.40
46117;DHT22;32591;48.102;11.772;2023-04-06T15:09:30;12.20;47.90
46117;DHT22;32591;48.102;11.772;2023-04-06T15:11:57;12.00;47.50
46117;DHT22;32591;48.102;11.772;2023-04-06T15:14:25;11.80;48.10
46117;DHT22;32591;48.102;11.772;2023-04-06T15:16:52;11.80;49.00
46117;DHT22;32591;48.102;11.772;2023-04-06T15:19:20;11.80;48.30
46117;DHT22;32591;48.102;11.772;2023-04-06T15:21:47;11.80;48.00
46117;DHT22;32591;48.102;11.772;2023-04-06T15:24:14;11.70;49.60
46117;DHT22;32591;48.102;11.772;2023-04-06T15:26:42;11.90;49.20